createdAt,value
2022-08-03T00:01:56.841Z,100475.62
2022-08-03T00:06:59.689Z,100476.81
2022-08-03T00:12:02.717Z,100475.73
2022-08-03T00:17:05.908Z,100474.58
2022-08-03T00:22:08.685Z,100476.58
2022-08-03T00:27:11.563Z,100478.53
2022-08-03T00:32:19.467Z,100478.52
2022-08-03T00:37:41.641Z,100477.27
2022-08-03T00:42:48.743Z,100477.64
2022-08-03T00:47:51.813Z,100476.34
2022-08-03T00:52:57.339Z,100481.66
2022-08-03T00:58:01.644Z,100478.13
2022-08-03T01:03:05.921Z,100482.18
2022-08-03T01:08:35.418Z,100479.27
2022-08-03T01:14:03.566Z,100480.04
2022-08-03T01:19:24.395Z,100475.23
2022-08-03T01:24:55.165Z,100471.61
2022-08-03T01:30:07.133Z,100465.50
2022-08-03T01:35:16.665Z,100464.70
2022-08-03T01:40:22.293Z,100463.63
2022-08-03T01:45:26.898Z,100460.44
2022-08-03T01:50:32.011Z,100462.39
2022-08-03T01:55:36.780Z,100464.29
2022-08-03T02:00:41.487Z,100460.12
2022-08-03T02:05:46.374Z,100462.49
2022-08-03T02:10:50.765Z,100456.23
2022-08-03T02:15:54.872Z,100452.64
2022-08-03T02:20:59.291Z,100446.42
2022-08-03T02:26:07.524Z,100445.84
2022-08-03T02:31:18.210Z,100441.65
2022-08-03T02:36:25.494Z,100441.15
2022-08-03T02:41:32.738Z,100446.89
2022-08-03T02:46:45.630Z,100443.95
2022-08-03T02:51:50.591Z,100445.85
2022-08-03T02:56:56.197Z,100447.86
2022-08-03T03:02:01.625Z,100443.41
2022-08-03T03:07:05.356Z,100440.88
2022-08-03T03:12:11.312Z,100441.14
2022-08-03T03:17:17.093Z,100442.96
2022-08-03T03:22:21.477Z,100440.91
2022-08-03T03:27:24.568Z,100439.31
2022-08-03T03:32:29.096Z,100437.39
2022-08-03T03:37:31.995Z,100435.30
2022-08-03T03:42:35.321Z,100435.94
2022-08-03T03:47:38.377Z,100441.38
2022-08-03T03:52:41.339Z,100447.02
2022-08-03T03:57:44.694Z,100454.70
2022-08-03T04:02:48.195Z,100459.48
2022-08-03T04:08:17.541Z,100459.70
2022-08-03T04:13:22.194Z,100462.23
2022-08-03T04:18:27.858Z,100468.73
2022-08-03T04:23:36.277Z,100472.34
2022-08-03T04:28:43.058Z,100474.73
2022-08-03T04:33:46.997Z,100483.23
2022-08-03T04:39:03.851Z,100486.25
2022-08-03T04:44:08.815Z,100486.52
2022-08-03T04:49:12.334Z,100493.90
2022-08-03T04:54:18.933Z,100488.38
2022-08-03T04:59:21.741Z,100493.77
2022-08-03T05:04:24.527Z,100496.54
2022-08-03T05:09:50.066Z,100498.07
2022-08-03T05:14:50.170Z,100505.81
2022-08-03T05:19:53.057Z,100505.07
2022-08-03T05:24:56.364Z,100510.54
2022-08-03T05:30:30.764Z,100505.17
2022-08-03T05:35:55.699Z,100512.48
2022-08-03T05:40:46.985Z,100508.15
2022-08-03T05:46:11.976Z,100506.88
2022-08-03T05:51:16.032Z,100511.04
2022-08-03T05:56:22.743Z,100508.20
2022-08-03T06:01:25.698Z,100508.95
2022-08-03T06:06:32.161Z,100502.74
2022-08-03T06:11:35.516Z,100498.63
2022-08-03T06:16:38.410Z,100502.19
2022-08-03T06:21:41.355Z,100507.27
2022-08-03T06:26:44.376Z,100512.81
2022-08-03T06:31:47.265Z,100516.91
2022-08-03T06:36:52.347Z,100519.50
2022-08-03T06:41:55.651Z,100521.98
2022-08-03T06:47:09.261Z,100539.10
2022-08-03T06:52:13.235Z,100545.59
2022-08-03T06:57:36.107Z,100540.67
2022-08-03T07:02:40.107Z,100525.30
2022-08-03T07:07:44.111Z,100519.53
2022-08-03T07:12:52.975Z,100522.13
2022-08-03T07:17:59.669Z,100524.48
2022-08-03T07:23:02.585Z,100524.47
2022-08-03T07:28:05.640Z,100518.05
2022-08-03T07:33:08.433Z,100518.81
2022-08-03T07:38:11.220Z,100517.66
2022-08-03T07:43:14.127Z,100511.27
2022-08-03T07:48:17.359Z,100511.44
2022-08-03T07:53:20.251Z,100495.50
2022-08-03T07:58:24.464Z,100484.78
2022-08-03T08:03:27.583Z,100489.71
2022-08-03T08:08:50.431Z,100486.05
2022-08-03T08:13:53.264Z,100487.45
2022-08-03T08:18:56.012Z,100488.73
2022-08-03T08:23:58.938Z,100496.09
2022-08-03T08:29:01.681Z,100495.77
2022-08-03T08:34:05.865Z,100493.94
2022-08-03T08:39:08.702Z,100497.16
2022-08-03T08:44:11.805Z,100496.48
2022-08-03T08:49:23.220Z,100499.69
2022-08-03T08:54:26.856Z,100499.84
2022-08-03T08:59:48.404Z,100500.70
2022-08-03T09:04:54.334Z,100499.48
2022-08-03T09:10:11.294Z,100501.64
2022-08-03T09:15:22.121Z,100499.89
2022-08-03T09:20:26.886Z,100501.08
2022-08-03T09:25:33.617Z,100506.88
2022-08-03T09:30:38.473Z,100501.81
2022-08-03T09:35:54.994Z,100500.98
2022-08-03T09:41:01.039Z,100502.92
2022-08-03T09:46:07.692Z,100499.54
2022-08-03T09:51:13.056Z,100497.08
2022-08-03T09:56:46.287Z,100503.66
2022-08-03T10:01:49.097Z,100496.77
2022-08-03T10:07:24.938Z,100493.47
2022-08-03T10:12:29.226Z,100494.20
2022-08-03T10:17:32.035Z,100493.25
2022-08-03T10:22:36.904Z,100489.55
2022-08-03T10:27:42.440Z,100490.70
2022-08-03T10:33:02.958Z,100491.52
2022-08-03T10:38:12.656Z,100485.29
2022-08-03T10:43:23.137Z,100482.22
2022-08-03T10:48:27.172Z,100484.52
2022-08-03T10:53:55.074Z,100481.20
2022-08-03T10:58:59.023Z,100482.91
2022-08-03T11:04:10.966Z,100477.03
2022-08-03T11:09:17.975Z,100474.64
2022-08-03T11:14:22.191Z,100471.95
2022-08-03T11:19:57.832Z,100474.27
2022-08-03T11:25:02.612Z,100473.25
2022-08-03T11:30:29.201Z,100467.80
2022-08-03T11:35:43.858Z,100469.89
2022-08-03T11:40:48.510Z,100472.36
2022-08-03T11:46:07.424Z,100470.69
2022-08-03T11:51:25.805Z,100468.36
2022-08-03T11:56:30.113Z,100465.70
2022-08-03T12:01:33.079Z,100465.16
2022-08-03T12:06:55.234Z,100460.81
2022-08-03T12:12:00.476Z,100461.13
2022-08-03T12:17:04.290Z,100454.20
2022-08-03T12:22:08.439Z,100448.41
2022-08-03T12:27:11.330Z,100451.14
2022-08-03T12:32:15.665Z,100446.05
2022-08-03T12:37:22.638Z,100447.69
2022-08-03T12:42:35.029Z,100449.44
2022-08-03T12:48:00.775Z,100444.86
2022-08-03T12:53:07.856Z,100439.94
2022-08-03T12:58:33.644Z,100432.87
2022-08-03T13:03:57.842Z,100430.21
2022-08-03T13:09:08.067Z,100434.36
2022-08-03T13:14:16.783Z,100431.52
2022-08-03T13:19:23.259Z,100431.39
2022-08-03T13:24:26.223Z,100425.03
2022-08-03T13:29:29.205Z,100422.79
2022-08-03T13:34:32.140Z,100426.33
2022-08-03T13:39:35.111Z,100423.47
2022-08-03T13:44:59.110Z,100420.73
2022-08-03T13:50:03.085Z,100416.19
2022-08-03T13:55:07.927Z,100411.27
2022-08-03T14:00:11.963Z,100414.05
2022-08-03T14:05:14.799Z,100404.08
2022-08-03T14:10:19.846Z,100403.81
2022-08-03T14:15:22.806Z,100401.15
2022-08-03T14:20:36.869Z,100393.65
2022-08-03T14:25:43.497Z,100391.13
2022-08-03T14:30:55.865Z,100383.08
2022-08-03T14:35:58.994Z,100378.94
2022-08-03T14:41:01.931Z,100371.92
2022-08-03T14:46:04.905Z,100369.48
2022-08-03T14:51:07.893Z,100366.44
2022-08-03T14:56:11.122Z,100370.51
2022-08-03T15:02:04.776Z,100369.89
2022-08-03T15:06:37.881Z,100366.34
2022-08-03T15:11:40.889Z,100367.01
2022-08-03T15:16:44.375Z,100369.20
2022-08-03T15:21:47.753Z,100369.14
2022-08-03T15:26:52.478Z,100366.09
2022-08-03T15:31:55.273Z,100361.23
2022-08-03T15:36:58.115Z,100358.45
2022-08-03T15:42:00.998Z,100358.19
2022-08-03T15:47:03.928Z,100355.61
2022-08-03T15:52:06.855Z,100348.40
2022-08-03T15:57:09.835Z,100348.35
2022-08-03T16:02:13.052Z,100345.65
2022-08-03T16:07:16.071Z,100345.84
2022-08-03T16:12:18.899Z,100344.39
2022-08-03T16:17:23.607Z,100343.59
2022-08-03T16:22:27.207Z,100343.16
2022-08-03T16:27:55.747Z,100344.20
2022-08-03T16:32:53.160Z,100345.27
2022-08-03T16:37:57.101Z,100342.23
2022-08-03T16:43:00.055Z,100342.38
2022-08-03T16:48:05.970Z,100344.31
2022-08-03T16:53:10.124Z,100342.36
2022-08-03T16:58:19.664Z,100339.40
2022-08-03T17:03:42.677Z,100345.34
2022-08-03T17:09:10.245Z,100347.70
2022-08-03T17:14:14.925Z,100350.98
2022-08-03T17:19:18.770Z,100356.98
2022-08-03T17:24:28.321Z,100355.72
2022-08-03T17:29:35.143Z,100362.17
2022-08-03T17:34:38.700Z,100363.66
2022-08-03T17:39:59.876Z,100365.86
2022-08-03T17:45:03.813Z,100368.83
2022-08-03T17:50:24.108Z,100368.80
2022-08-03T17:55:56.673Z,100374.27
2022-08-03T18:01:59.801Z,100378.48
2022-08-03T18:06:55.769Z,100381.09
2022-08-03T18:12:05.432Z,100387.48
2022-08-03T18:17:15.785Z,100388.92
2022-08-03T18:22:22.074Z,100395.69
2022-08-03T18:27:45.412Z,100401.33
2022-08-03T18:33:00.616Z,100409.99
2022-08-03T18:38:04.244Z,100413.97
2022-08-03T18:43:14.047Z,100413.40
2022-08-03T18:48:40.638Z,100422.23
2022-08-03T18:54:06.219Z,100424.48
2022-08-03T18:59:14.854Z,100423.05
2022-08-03T19:04:25.624Z,100424.73
2022-08-03T19:09:35.076Z,100428.77
2022-08-03T19:14:45.887Z,100425.43
2022-08-03T19:19:51.348Z,100423.02
2022-08-03T19:24:58.491Z,100421.56
2022-08-03T19:30:11.857Z,100422.67
2022-08-03T19:35:52.266Z,100426.52
2022-08-03T19:40:50.916Z,100426.83
2022-08-03T19:46:06.335Z,100429.51
2022-08-03T19:51:12.157Z,100430.48
2022-08-03T19:56:15.940Z,100434.01
2022-08-03T20:06:43.467Z,100441.87
2022-08-03T20:11:48.508Z,100442.52
2022-08-03T20:16:51.899Z,100444.05
2022-08-03T20:21:54.947Z,100448.23
2022-08-03T20:27:00.400Z,100448.05
2022-08-03T20:32:03.661Z,100451.25
2022-08-03T20:37:09.474Z,100453.47
2022-08-03T20:42:15.022Z,100454.18
2022-08-03T20:47:27.128Z,100456.06
2022-08-03T20:52:34.990Z,100459.92
2022-08-03T20:57:53.741Z,100463.92
2022-08-03T21:02:56.642Z,100464.00
2022-08-03T21:08:07.151Z,100468.33
2022-08-03T21:13:10.649Z,100440.78
2022-08-03T21:13:25.800Z,100466.86
2022-08-03T21:18:36.033Z,100470.77
2022-08-03T21:23:49.892Z,100473.76
2022-08-03T21:28:55.495Z,100474.75
2022-08-03T21:34:02.664Z,100473.95
2022-08-03T21:39:08.446Z,100475.75
2022-08-03T21:44:11.897Z,100485.05
2022-08-03T21:50:06.831Z,100479.73
2022-08-03T21:54:43.484Z,100478.10
2022-08-03T21:59:54.798Z,100472.09
2022-08-03T22:04:58.164Z,100468.86
2022-08-03T22:10:02.591Z,100470.16
2022-08-03T22:15:09.512Z,100466.84
2022-08-03T22:20:17.289Z,100473.79
2022-08-03T22:25:24.795Z,100474.37
2022-08-03T22:30:29.119Z,100474.08
2022-08-03T22:35:47.288Z,100477.16
2022-08-03T22:40:52.543Z,100480.30
2022-08-03T22:46:09.528Z,100482.95
2022-08-03T22:51:15.972Z,100481.73
2022-08-03T22:56:19.119Z,100486.05
2022-08-03T23:01:26.367Z,100485.79
2022-08-03T23:06:38.949Z,100480.49
2022-08-03T23:11:45.580Z,100478.02
2022-08-03T23:16:50.802Z,100474.41
2022-08-03T23:22:03.016Z,100478.76
2022-08-03T23:27:09.681Z,100474.66
2022-08-03T23:32:13.305Z,100473.46
2022-08-03T23:37:17.808Z,100477.08
2022-08-03T23:42:21.967Z,100479.76
2022-08-03T23:47:25.136Z,100478.58
2022-08-03T23:53:04.054Z,100475.89
2022-08-03T23:58:28.282Z,100477.48
